Time;durP1;ratioP1;P1;durP2;ratioP2;P2;SDS_P1;SDS_P2;PMS_P1;PMS_P2;Temp;Humidity;BMP_temperature;BMP_pressure;BME280_temperature;BME280_humidity;BME280_pressure;Samples;Min_cycle;Max_cycle;Signal;HPM_P1;HPM_P2
2023/01/08 00:00:44;;;;;;;6.28;3.20;;;;;;;9.23;93.20;100291.59;4987735;28;20023;-63
2023/01/08 00:03:10;;;;;;;6.55;3.22;;;;;;;9.25;93.12;100283.84;4981984;28;20034;-63
2023/01/08 00:05:36;;;;;;;5.20;2.97;;;;;;;9.23;93.29;100283.81;4977225;28;20023;-63
2023/01/08 00:08:01;;;;;;;6.85;3.25;;;;;;;9.23;93.18;100288.16;4983497;28;20345;-63
2023/01/08 00:10:26;;;;;;;7.53;3.30;;;;;;;9.22;93.15;100292.47;4985896;28;20018;-63
2023/01/08 00:12:54;;;;;;;7.03;3.15;;;;;;;9.22;93.22;100295.06;4985917;28;20062;-63
2023/01/08 00:15:20;;;;;;;5.55;3.47;;;;;;;9.23;93.35;100301.13;4983026;28;20090;-63
2023/01/08 00:17:45;;;;;;;5.47;3.17;;;;;;;9.24;93.47;100302.91;4981199;28;20209;-62
2023/01/08 00:20:10;;;;;;;6.82;3.53;;;;;;;9.25;93.44;100293.38;4984627;28;20031;-63
2023/01/08 00:22:35;;;;;;;5.38;3.45;;;;;;;9.27;93.21;100291.66;4984319;28;20057;-63
2023/01/08 00:25:01;;;;;;;6.00;3.38;;;;;;;9.28;93.41;100285.63;4981000;28;20049;-63
2023/01/08 00:27:26;;;;;;;5.55;3.10;;;;;;;9.29;93.23;100292.59;4979772;28;20034;-70
2023/01/08 00:29:51;;;;;;;6.43;3.33;;;;;;;9.30;93.17;100278.72;4986247;28;20159;-70
2023/01/08 00:32:17;;;;;;;4.97;2.85;;;;;;;9.29;93.13;100282.19;4982838;28;20194;-70
2023/01/08 00:34:42;;;;;;;6.10;3.30;;;;;;;9.31;92.97;100275.28;4990854;28;20011;-70
2023/01/08 00:37:07;;;;;;;5.95;3.15;;;;;;;9.31;93.26;100265.78;4986531;28;20129;-70
2023/01/08 00:39:33;;;;;;;5.57;2.78;;;;;;;9.30;93.36;100268.31;4986610;28;20197;-70
2023/01/08 00:41:58;;;;;;;6.18;3.08;;;;;;;9.29;93.61;100256.19;4984511;28;20569;-70
2023/01/08 00:44:23;;;;;;;6.82;3.30;;;;;;;9.30;93.48;100255.31;4984605;28;20018;-70
2023/01/08 00:46:48;;;;;;;7.20;3.10;;;;;;;9.29;93.75;100254.47;4986198;28;20046;-70
2023/01/08 00:49:14;;;;;;;6.15;3.30;;;;;;;9.28;93.53;100251.84;4986167;28;20027;-70
2023/01/08 00:51:39;;;;;;;7.18;3.50;;;;;;;9.29;93.72;100245.78;4986641;28;20015;-70
2023/01/08 00:54:04;;;;;;;7.80;3.30;;;;;;;9.30;93.61;100250.13;4983556;28;20086;-70
2023/01/08 00:56:30;;;;;;;9.23;3.40;;;;;;;9.31;93.66;100238.88;4984158;28;20022;-70
2023/01/08 00:58:55;;;;;;;8.15;3.70;;;;;;;9.30;93.75;100247.53;4979952;28;20038;-70
2023/01/08 01:01:20;;;;;;;6.18;3.20;;;;;;;9.30;93.76;100242.31;4982577;28;20102;-70
2023/01/08 01:03:46;;;;;;;5.20;3.13;;;;;;;9.27;93.87;100237.97;4979399;28;20087;-70
2023/01/08 01:06:12;;;;;;;7.97;3.22;;;;;;;9.28;93.88;100241.44;4983182;28;20026;-70
2023/01/08 01:08:38;;;;;;;6.82;3.25;;;;;;;9.25;94.13;100238.78;4986127;28;20027;-70
2023/01/08 01:11:08;;;;;;;7.05;3.50;;;;;;;9.25;94.21;100236.19;4985384;28;20102;-70
2023/01/08 01:13:34;;;;;;;5.40;3.25;;;;;;;9.23;94.16;100234.41;4975892;28;20011;-70
2023/01/08 01:16:01;;;;;;;6.70;3.38;;;;;;;9.25;94.01;100233.59;4985811;28;20030;-70
2023/01/08 01:18:27;;;;;;;6.88;3.30;;;;;;;9.23;94.24;100225.75;4974211;28;20015;-70
2023/01/08 01:20:53;;;;;;;6.90;3.30;;;;;;;9.22;94.29;100224.88;4984950;28;20276;-70
2023/01/08 01:23:18;;;;;;;8.52;3.10;;;;;;;9.20;94.48;100223.09;4982133;28;20086;-70
2023/01/08 01:25:44;;;;;;;5.72;3.15;;;;;;;9.20;94.55;100218.75;4984423;28;21279;-70
2023/01/08 01:28:09;;;;;;;5.15;3.30;;;;;;;9.18;94.59;100227.38;4984920;28;20027;-70
2023/01/08 01:30:34;;;;;;;6.90;3.22;;;;;;;9.18;94.75;100223.06;4983381;28;20031;-70
2023/01/08 01:33:00;;;;;;;6.85;3.40;;;;;;;9.18;94.87;100212.69;4993215;28;20010;-70
2023/01/08 01:35:25;;;;;;;6.05;3.40;;;;;;;9.19;95.05;100218.75;4981691;28;20065;-70
2023/01/08 01:37:50;;;;;;;5.88;2.88;;;;;;;9.18;94.93;100223.06;4980260;28;20023;-70
2023/01/08 01:40:15;;;;;;;7.15;3.40;;;;;;;9.19;94.71;100222.22;4978906;28;20093;-70
2023/01/08 01:42:42;;;;;;;7.18;3.17;;;;;;;9.20;94.50;100217.91;4981576;28;20057;-70
2023/01/08 01:45:26;;;;;;;5.88;3.30;;;;;;;9.23;94.75;100228.34;4979944;28;20301;-70
2023/01/08 01:47:58;;;;;;;7.40;3.28;;;;;;;9.27;94.58;100231.88;4971532;28;20185;-70
2023/01/08 01:50:29;;;;;;;6.32;3.28;;;;;;;9.28;94.61;100228.44;4982787;28;20138;-70
2023/01/08 01:52:59;;;;;;;5.35;2.90;;;;;;;9.28;94.76;100238.84;4979909;28;20106;-70
2023/01/08 01:55:25;;;;;;;6.13;3.15;;;;;;;9.26;95.19;100246.59;4975176;28;20029;-70
2023/01/08 01:58:00;;;;;;;6.00;3.30;;;;;;;9.23;95.81;100243.94;4983526;28;20015;-70
2023/01/08 02:00:26;;;;;;;7.80;2.97;;;;;;;9.18;95.01;100235.19;4973470;28;20325;-70
2023/01/08 02:02:52;;;;;;;4.18;2.30;;;;;;;9.12;94.52;100248.06;4980688;28;20241;-70
2023/01/08 02:05:18;;;;;;;5.30;2.28;;;;;;;9.02;94.28;100247.00;4980517;28;20029;-70
2023/01/08 02:07:53;;;;;;;5.78;2.30;;;;;;;8.96;94.83;100241.69;4977208;28;20174;-70
2023/01/08 02:10:39;;;;;;;3.50;1.88;;;;;;;8.82;94.94;100254.38;4972810;28;20019;-70
2023/01/08 02:13:12;;;;;;;5.10;1.85;;;;;;;8.69;95.28;100242.88;4982035;28;20023;-70
2023/01/08 02:15:57;;;;;;;6.10;1.60;;;;;;;8.60;95.45;100242.66;4975935;28;20284;-71
2023/01/08 02:18:37;;;;;;;4.20;1.30;;;;;;;8.51;94.67;100232.94;4976758;28;20014;-71
2023/01/08 02:21:51;;;;;;;3.97;1.10;;;;;;;8.44;94.82;100223.22;4982797;28;20026;-71
2023/01/08 02:24:43;;;;;;;3.08;0.95;;;;;;;8.35;94.18;100216.13;4981289;28;20097;-70
2023/01/08 02:27:08;;;;;;;4.18;0.90;;;;;;;8.27;93.92;100215.06;4976071;28;20031;-63
2023/01/08 02:29:34;;;;;;;4.13;0.88;;;;;;;8.21;94.03;100209.72;4982217;28;20054;-63
2023/01/08 02:32:00;;;;;;;4.47;1.17;;;;;;;8.17;94.12;100219.19;4981068;28;20137;-63
2023/01/08 02:34:26;;;;;;;4.82;1.10;;;;;;;8.11;94.89;100219.91;4977620;28;20270;-63
2023/01/08 02:36:54;;;;;;;3.75;1.02;;;;;;;8.07;95.23;100212.91;4980767;28;20029;-63
2023/01/08 02:39:34;;;;;;;2.70;1.00;;;;;;;8.04;95.35;100217.13;4980263;28;20034;-63
2023/01/08 02:42:08;;;;;;;4.30;0.85;;;;;;;8.00;95.72;100218.78;4981231;28;20043;-63
2023/01/08 02:44:57;;;;;;;4.05;1.17;;;;;;;7.97;96.09;100223.91;4974186;28;20027;-63
2023/01/08 02:47:32;;;;;;;;;;;;;;;7.97;95.52;100214.38;4981562;28;20054;-63
2023/01/08 02:50:15;;;;;;;3.13;0.82;;;;;;;7.91;96.53;100219.44;4982887;28;20190;-63
2023/01/08 02:53:02;;;;;;;3.53;1.00;;;;;;;7.89;96.74;100221.09;4981969;28;20015;-65
2023/01/08 02:55:32;;;;;;;3.03;0.95;;;;;;;7.82;97.80;100209.72;4979794;28;20049;-64
2023/01/08 02:57:58;;;;;;;5.45;1.00;;;;;;;7.78;98.26;100213.06;4979029;28;20296;-71
2023/01/08 03:00:24;;;;;;;3.50;0.75;;;;;;;7.75;98.32;100210.41;4976796;28;20280;-71
2023/01/08 03:02:58;;;;;;;3.05;0.80;;;;;;;7.72;98.95;100206.84;4981397;28;20166;-71
2023/01/08 03:05:26;;;;;;;4.10;0.85;;;;;;;7.69;98.99;100199.88;4977279;28;20246;-71
2023/01/08 03:07:53;;;;;;;3.90;0.85;;;;;;;7.68;99.27;100198.13;4979040;28;20169;-71
2023/01/08 03:10:22;;;;;;;4.28;0.95;;;;;;;7.66;99.23;100192.00;4982499;28;20027;-71
2023/01/08 03:13:00;;;;;;;2.97;0.60;;;;;;;7.65;99.33;100195.47;4980536;28;20038;-71
2023/01/08 03:15:35;;;;;;;2.55;0.80;;;;;;;7.64;99.41;100198.88;4977091;28;20085;-71
2023/01/08 03:18:08;;;;;;;4.72;1.00;;;;;;;7.62;99.24;100197.97;4973940;28;20015;-71
2023/01/08 03:20:36;;;;;;;5.63;0.90;;;;;;;7.63;98.86;100199.72;4977128;28;20030;-71
2023/01/08 03:23:05;;;;;;;2.10;0.70;;;;;;;7.61;98.96;100193.63;4980543;28;20181;-70
2023/01/08 03:25:31;;;;;;;3.55;0.80;;;;;;;7.61;99.01;100199.69;4980536;28;20022;-70
2023/01/08 03:28:01;;;;;;;5.28;0.90;;;;;;;7.61;99.20;100199.69;4983506;28;20019;-71
2023/01/08 03:30:29;;;;;;;4.88;0.90;;;;;;;7.61;98.98;100199.69;4983029;28;20277;-70
2023/01/08 03:32:58;;;;;;;2.10;0.68;;;;;;;7.61;99.15;100193.63;4978615;28;20096;-70
2023/01/08 03:35:25;;;;;;;;;;;;;;;7.66;98.46;100192.91;4980601;28;20027;-70
2023/01/08 03:37:56;;;;;;;2.83;0.90;;;;;;;7.62;98.83;100196.25;4979110;28;20090;-71
2023/01/08 03:40:29;;;;;;;4.82;0.98;;;;;;;7.61;98.91;100185.84;4974577;28;20029;-71
2023/01/08 03:42:56;;;;;;;5.45;1.35;;;;;;;7.60;99.15;100181.50;4981598;28;20035;-70
2023/01/08 03:45:24;;;;;;;3.03;0.70;;;;;;;7.60;99.29;100172.00;4980331;28;20023;-71
2023/01/08 03:47:51;;;;;;;3.95;0.80;;;;;;;7.60;99.13;100187.56;4981131;28;20045;-70
2023/01/08 03:50:21;;;;;;;5.65;0.90;;;;;;;7.60;99.31;100179.78;4981131;28;20303;-70
2023/01/08 03:52:46;;;;;;;3.50;1.00;;;;;;;7.61;99.34;100185.84;4976593;28;20027;-70
2023/01/08 03:55:12;;;;;;;7.20;1.08;;;;;;;7.62;99.11;100179.84;4979911;28;20026;-70
2023/01/08 03:57:37;;;;;;;5.90;1.25;;;;;;;7.62;99.14;100169.47;4977748;28;20026;-70
2023/01/08 04:00:03;;;;;;;5.93;1.10;;;;;;;7.63;99.13;100176.38;4982480;28;20162;-71
2023/01/08 04:02:29;;;;;;;4.13;1.00;;;;;;;7.64;99.04;100172.94;4984578;28;20026;-71
2023/01/08 04:04:54;;;;;;;4.07;1.02;;;;;;;7.64;99.14;100168.63;4985724;28;20019;-71
2023/01/08 04:07:19;;;;;;;6.00;1.00;;;;;;;7.66;99.17;100171.25;4985692;28;20316;-71
2023/01/08 04:09:45;;;;;;;5.93;1.00;;;;;;;7.66;99.12;100171.25;4979202;28;20050;-70
2023/01/08 04:12:11;;;;;;;4.78;1.05;;;;;;;7.65;99.38;100161.75;4982927;28;20181;-70
2023/01/08 04:14:36;;;;;;;4.10;0.82;;;;;;;7.65;99.33;100162.63;4981698;28;20030;-71
2023/01/08 04:17:01;;;;;;;4.57;1.02;;;;;;;7.65;98.97;100153.97;4981741;28;20165;-70
2023/01/08 04:19:27;;;;;;;2.67;1.02;;;;;;;7.64;99.04;100147.03;4983435;28;20039;-71
2023/01/08 04:21:52;;;;;;;6.55;1.20;;;;;;;7.61;99.21;100149.53;4984802;28;20101;-71
2023/01/08 04:24:18;;;;;;;4.35;1.20;;;;;;;7.60;99.43;100152.97;4977804;28;20030;-71
2023/01/08 04:26:44;;;;;;;4.40;1.17;;;;;;;7.60;99.83;100164.25;4985638;28;20031;-71
2023/01/08 04:29:11;;;;;;;4.18;1.30;;;;;;;7.63;99.78;100166.00;4977155;28;20304;-71
2023/01/08 04:31:36;;;;;;;4.63;1.45;;;;;;;7.64;99.78;100157.41;4999791;28;20014;-71
2023/01/08 04:34:02;;;;;;;7.25;1.83;;;;;;;7.65;99.96;100146.19;4992303;28;20019;-71
2023/01/08 04:36:27;;;;;;;5.97;1.50;;;;;;;7.68;99.95;100145.41;4987177;28;20023;-70
2023/01/08 04:38:52;;;;;;;2.88;1.30;;;;;;;7.67;99.46;100141.91;4986447;28;20061;-70
2023/01/08 04:41:18;;;;;;;3.47;1.23;;;;;;;7.70;99.31;100141.97;4986448;28;20233;-70
2023/01/08 04:43:43;;;;;;;4.47;1.38;;;;;;;7.72;99.03;100136.81;4985766;28;20050;-71
2023/01/08 04:46:09;;;;;;;5.30;1.60;;;;;;;7.72;99.18;100144.59;4985783;28;20026;-71
2023/01/08 04:48:34;;;;;;;6.38;2.15;;;;;;;7.72;98.87;100140.31;4978557;28;20034;-71
2023/01/08 04:51:01;;;;;;;7.65;1.60;;;;;;;7.72;98.78;100129.94;4985230;28;20154;-71
2023/01/08 04:53:27;;;;;;;4.63;1.80;;;;;;;7.72;99.10;100148.09;4983231;28;20158;-71
2023/01/08 04:55:53;;;;;;;4.43;1.63;;;;;;;7.72;98.87;100142.91;4976026;28;20021;-71
2023/01/08 04:58:19;;;;;;;3.83;1.48;;;;;;;7.71;98.57;100148.94;4984925;28;20057;-71
2023/01/08 05:00:44;;;;;;;4.65;1.50;;;;;;;7.70;98.76;100151.47;4984959;28;20031;-71
2023/01/08 05:03:09;;;;;;;4.57;1.60;;;;;;;7.71;98.69;100148.94;4984778;28;20030;-70
2023/01/08 05:05:35;;;;;;;6.13;1.90;;;;;;;7.70;98.75;100138.53;4985280;28;20023;-71
2023/01/08 05:08:00;;;;;;;4.30;1.40;;;;;;;7.69;98.68;100145.44;4982022;28;20251;-70
2023/01/08 05:10:26;;;;;;;3.55;1.23;;;;;;;7.70;97.84;100151.47;4979666;28;20018;-70
2023/01/08 05:12:51;;;;;;;4.68;1.52;;;;;;;7.68;97.38;100150.59;4983317;28;20304;-71
2023/01/08 05:15:16;;;;;;;3.72;1.10;;;;;;;7.67;96.22;100144.50;4985310;28;20265;-71
2023/01/08 05:17:41;;;;;;;3.05;0.93;;;;;;;7.68;95.39;100151.44;4983145;28;20046;-70
2023/01/08 05:20:08;;;;;;;3.05;0.98;;;;;;;7.68;95.53;100143.66;4983791;28;20039;-71
2023/01/08 05:22:33;;;;;;;3.72;0.90;;;;;;;7.68;95.15;100146.25;4989621;28;20042;-70
2023/01/08 05:24:58;;;;;;;3.63;0.90;;;;;;;7.68;94.51;100148.00;4984444;28;20170;-70
2023/01/08 05:27:24;;;;;;;2.47;0.75;;;;;;;7.67;94.12;100141.91;4979565;28;20094;-71
2023/01/08 05:29:50;;;;;;;2.75;0.93;;;;;;;7.66;93.56;100134.97;4985245;28;20026;-71
2023/01/08 05:32:17;;;;;;;1.85;0.73;;;;;;;7.65;93.72;100134.09;4977173;28;20258;-70
2023/01/08 05:34:43;;;;;;;2.92;0.90;;;;;;;7.65;93.34;100128.91;4982089;28;20073;-71
2023/01/08 05:37:09;;;;;;;2.00;0.80;;;;;;;7.64;93.15;100121.09;4982896;28;20081;-70
2023/01/08 05:39:34;;;;;;;4.00;0.80;;;;;;;7.64;93.17;100111.59;4983409;28;20026;-71
2023/01/08 05:42:00;;;;;;;3.70;0.90;;;;;;;7.63;93.10;100112.44;4971381;28;20345;-70
2023/01/08 05:44:26;;;;;;;4.07;1.08;;;;;;;7.63;92.87;100127.13;4984087;28;20023;-70
2023/01/08 05:46:55;;;;;;;4.72;1.00;;;;;;;7.62;92.63;100120.19;4981036;28;20038;-71
2023/01/08 05:49:21;;;;;;;2.95;0.95;;;;;;;7.62;92.30;100125.38;4984019;28;20033;-70
2023/01/08 05:51:47;;;;;;;4.25;1.02;;;;;;;7.59;92.18;100125.28;4978316;28;20014;-70
2023/01/08 05:54:13;;;;;;;3.72;0.95;;;;;;;7.55;92.42;100116.56;4983092;28;20042;-70
2023/01/08 05:56:38;;;;;;;3.72;1.05;;;;;;;7.55;91.94;100120.88;4983892;28;20047;-70
2023/01/08 05:59:04;;;;;;;2.63;0.90;;;;;;;7.51;92.00;100126.84;4982893;28;20025;-70
2023/01/08 06:01:29;;;;;;;4.40;1.00;;;;;;;7.46;91.40;100122.41;4977123;28;20045;-70
2023/01/08 06:03:55;;;;;;;4.68;1.42;;;;;;;7.43;91.67;100132.72;4971889;28;20238;-70
2023/01/08 06:06:21;;;;;;;5.20;1.00;;;;;;;7.40;91.30;100137.81;4981261;28;20023;-71
2023/01/08 06:08:46;;;;;;;4.00;1.00;;;;;;;7.37;91.46;100131.66;4978736;28;20023;-71
2023/01/08 06:11:12;;;;;;;4.75;1.00;;;;;;;7.34;91.48;100137.63;4974915;28;20038;-70
2023/01/08 06:13:41;;;;;;;3.55;1.13;;;;;;;7.31;91.48;100140.16;4978681;28;20200;-70
2023/01/08 06:16:06;;;;;;;4.32;1.08;;;;;;;7.27;91.59;100148.69;4980689;28;20026;-70
2023/01/08 06:18:32;;;;;;;4.45;1.00;;;;;;;7.24;91.61;100151.19;4982959;28;20046;-70
2023/01/08 06:20:57;;;;;;;4.47;1.27;;;;;;;7.19;91.57;100143.31;4980684;28;20045;-71
2023/01/08 06:23:22;;;;;;;2.85;1.13;;;;;;;7.17;91.76;100146.69;4980002;28;20062;-71
2023/01/08 06:25:52;;;;;;;2.42;1.00;;;;;;;7.13;91.90;100148.34;4981667;28;20214;-70
2023/01/08 06:28:18;;;;;;;5.35;1.20;;;;;;;7.10;91.74;100149.13;4982689;28;20232;-70
2023/01/08 06:30:43;;;;;;;3.75;1.05;;;;;;;7.05;91.60;100158.47;4983798;28;20054;-70
2023/01/08 06:33:08;;;;;;;2.55;0.90;;;;;;;7.02;91.61;100162.72;4980710;28;20081;-71
2023/01/08 06:35:34;;;;;;;4.22;0.95;;;;;;;6.97;91.77;100163.47;4977931;28;20027;-70
2023/01/08 06:37:59;;;;;;;5.55;1.10;;;;;;;6.94;91.59;100165.13;4981899;28;20034;-70
2023/01/08 06:40:24;;;;;;;4.82;1.10;;;;;;;6.90;90.90;100166.72;4986187;28;20029;-70
2023/01/08 06:42:49;;;;;;;4.80;1.40;;;;;;;6.88;91.24;100167.50;4977512;28;20062;-70
2023/01/08 06:45:15;;;;;;;3.47;1.08;;;;;;;6.86;91.11;100175.25;4980475;28;20023;-70
2023/01/08 06:47:40;;;;;;;3.47;0.82;;;;;;;6.81;91.13;100171.66;4973406;28;20031;-71
2023/01/08 06:50:06;;;;;;;5.45;1.30;;;;;;;6.78;90.68;100174.19;4977301;28;20119;-70
2023/01/08 06:52:32;;;;;;;5.18;1.13;;;;;;;6.75;90.52;100171.50;4978962;28;20036;-70
2023/01/08 06:54:57;;;;;;;8.25;1.15;;;;;;;6.70;90.41;100166.16;4974570;28;20106;-70
2023/01/08 06:57:22;;;;;;;7.72;1.20;;;;;;;6.67;90.47;100176.44;4981900;28;20034;-70
2023/01/08 06:59:48;;;;;;;5.43;1.00;;;;;;;6.65;90.59;100178.13;4975245;28;20253;-71
2023/01/08 07:02:14;;;;;;;5.03;1.30;;;;;;;6.64;90.90;100172.91;4982261;28;20053;-71
2023/01/08 07:04:39;;;;;;;5.70;1.30;;;;;;;6.63;90.59;100166.81;4983245;28;20023;-71
2023/01/08 07:07:05;;;;;;;6.63;1.20;;;;;;;6.61;90.60;100174.56;4982332;28;20033;-70
2023/01/08 07:09:30;;;;;;;8.23;1.75;;;;;;;6.61;90.28;100173.69;4983853;28;20213;-70
2023/01/08 07:11:55;;;;;;;6.80;1.38;;;;;;;6.60;90.85;100169.34;4982954;28;20265;-70
2023/01/08 07:14:21;;;;;;;4.93;1.38;;;;;;;6.58;90.47;100165.84;4982683;28;20034;-71
2023/01/08 07:16:46;;;;;;;6.22;1.45;;;;;;;6.57;89.75;100166.66;4983562;28;20032;-71
2023/01/08 07:19:12;;;;;;;6.90;1.45;;;;;;;6.56;90.13;100159.72;4981920;28;20015;-71
2023/01/08 07:21:37;;;;;;;4.97;1.33;;;;;;;6.52;89.92;100150.13;4978713;28;20146;-70
2023/01/08 07:24:03;;;;;;;5.43;1.23;;;;;;;6.51;89.79;100156.13;4980816;28;20030;-71
2023/01/08 07:26:28;;;;;;;6.70;1.50;;;;;;;6.49;89.86;100152.59;4981706;28;20042;-63
2023/01/08 07:28:53;;;;;;;7.10;1.67;;;;;;;6.47;90.56;100154.28;4983341;28;20074;-64
2023/01/08 07:31:19;;;;;;;4.53;1.30;;;;;;;6.44;90.37;100155.97;4985403;28;20094;-63
2023/01/08 07:33:44;;;;;;;4.40;1.08;;;;;;;6.41;90.44;100161.03;4983279;28;20019;-63
2023/01/08 07:36:10;;;;;;;5.57;1.30;;;;;;;6.40;90.67;100161.88;4982277;28;20217;-63
2023/01/08 07:38:35;;;;;;;6.13;1.45;;;;;;;6.38;91.23;100165.25;4985793;28;20019;-62
2023/01/08 07:41:00;;;;;;;5.18;1.30;;;;;;;6.35;90.91;100162.56;4981965;28;20026;-63
2023/01/08 07:43:28;;;;;;;5.60;1.40;;;;;;;6.34;91.18;100173.75;4984603;28;20038;-63
2023/01/08 07:45:54;;;;;;;8.15;1.50;;;;;;;6.29;91.44;100168.44;4980901;28;20030;-63
2023/01/08 07:48:19;;;;;;;5.78;1.17;;;;;;;6.26;91.64;100160.59;4983910;28;20073;-63
2023/01/08 07:50:44;;;;;;;6.43;1.02;;;;;;;6.22;91.62;100162.19;4985512;28;20023;-63
2023/01/08 07:53:11;;;;;;;5.75;1.20;;;;;;;6.19;91.87;100153.47;4984953;28;20026;-63
2023/01/08 07:55:37;;;;;;;9.30;1.48;;;;;;;6.17;91.80;100152.53;4986220;28;20023;-63
2023/01/08 07:58:10;;;;;;;4.20;1.15;;;;;;;6.16;92.17;100158.56;4982045;28;20029;-63
2023/01/08 08:00:35;;;;;;;7.07;1.13;;;;;;;6.16;92.13;100154.25;4985958;28;20030;-63
2023/01/08 08:03:06;;;;;;;4.72;1.00;;;;;;;6.15;92.37;100156.81;4983777;28;20034;-63
2023/01/08 08:05:33;;;;;;;4.82;1.00;;;;;;;6.13;92.98;100154.19;4981978;28;20159;-63
2023/01/08 08:07:58;;;;;;;7.00;1.10;;;;;;;6.12;92.82;100161.88;4985369;28;20030;-63
2023/01/08 08:10:23;;;;;;;5.32;0.85;;;;;;;6.12;92.75;100141.19;4982120;28;20034;-63
2023/01/08 08:12:49;;;;;;;5.43;1.40;;;;;;;6.12;93.19;100136.03;4984033;28;20144;-63
2023/01/08 08:15:14;;;;;;;5.93;0.95;;;;;;;6.13;93.72;100133.47;4984297;28;20027;-63
2023/01/08 08:17:44;;;;;;;4.95;1.20;;;;;;;6.16;94.02;100127.53;4979795;28;20010;-63
2023/01/08 08:20:09;;;;;;;;;;;;;;;6.23;93.42;100129.47;4980717;28;20015;-63
2023/01/08 08:22:34;;;;;;;6.40;1.10;;;;;;;6.26;93.81;100114.03;4980703;28;20172;-63
2023/01/08 08:25:00;;;;;;;7.47;1.30;;;;;;;6.30;94.03;100108.13;4983344;28;20325;-63
2023/01/08 08:27:25;;;;;;;6.38;1.08;;;;;;;6.32;94.39;100109.03;4982362;28;20029;-70
2023/01/08 08:29:50;;;;;;;5.22;1.00;;;;;;;6.35;94.11;100114.28;4979464;28;20151;-70
2023/01/08 08:32:15;;;;;;;3.67;0.90;;;;;;;6.38;94.03;100113.50;4984065;28;20034;-70
2023/01/08 08:34:41;;;;;;;4.43;1.23;;;;;;;6.41;94.31;100122.22;4979493;28;20034;-71
2023/01/08 08:37:07;;;;;;;4.75;1.15;;;;;;;6.42;94.34;100120.53;4981036;28;20269;-71
2023/01/08 08:39:33;;;;;;;6.55;1.00;;;;;;;6.41;94.71;100108.41;4989661;28;20028;-70
2023/01/08 08:41:58;;;;;;;6.22;1.25;;;;;;;6.42;94.91;100121.38;4983374;28;20034;-71
2023/01/08 08:44:23;;;;;;;5.65;1.23;;;;;;;6.42;95.43;100121.38;4987879;28;20232;-71
2023/01/08 08:46:48;;;;;;;6.63;1.23;;;;;;;6.42;95.15;100116.22;4983535;28;20015;-70
2023/01/08 08:49:14;;;;;;;4.57;1.33;;;;;;;6.45;95.01;100123.19;4982650;28;20030;-70
2023/01/08 08:51:39;;;;;;;4.93;1.10;;;;;;;6.46;94.86;100111.13;4983719;28;20019;-70
2023/01/08 08:54:04;;;;;;;7.78;1.40;;;;;;;6.47;94.91;100116.34;4984296;28;20033;-71
2023/01/08 08:56:30;;;;;;;6.80;1.30;;;;;;;6.48;95.05;100112.06;4982128;28;20022;-70
2023/01/08 08:58:56;;;;;;;5.60;1.40;;;;;;;6.47;94.66;100110.28;4980084;28;20094;-70
2023/01/08 09:01:22;;;;;;;9.05;1.38;;;;;;;6.47;95.26;100105.13;4984144;28;20018;-70
2023/01/08 09:03:47;;;;;;;4.45;1.13;;;;;;;6.43;95.20;100096.38;4982628;28;20052;-70
2023/01/08 09:06:13;;;;;;;6.93;1.20;;;;;;;6.39;95.26;100103.19;4983979;28;20015;-71
2023/01/08 09:08:38;;;;;;;6.85;1.65;;;;;;;6.37;95.10;100098.81;4984335;28;20098;-70
2023/01/08 09:11:04;;;;;;;4.30;1.40;;;;;;;6.35;94.83;100105.66;4978819;28;20022;-70
2023/01/08 09:13:29;;;;;;;6.20;1.45;;;;;;;6.34;95.12;100096.13;4981995;28;20042;-70
2023/01/08 09:15:57;;;;;;;8.18;1.48;;;;;;;6.32;95.39;100102.97;4975913;28;20065;-70
2023/01/08 09:18:22;;;;;;;6.85;1.30;;;;;;;6.33;95.70;100104.72;4985067;28;20026;-70
2023/01/08 09:20:48;;;;;;;6.68;1.60;;;;;;;6.31;95.64;100102.09;4977130;28;20391;-70
2023/01/08 09:23:13;;;;;;;7.82;1.38;;;;;;;6.32;96.11;100100.41;4986343;28;20291;-70
2023/01/08 09:25:38;;;;;;;6.47;1.45;;;;;;;6.33;95.58;100102.13;4986104;28;20049;-70
2023/01/08 09:28:07;;;;;;;7.53;1.73;;;;;;;6.32;96.04;100095.22;4990123;28;20034;-63
2023/01/08 09:30:33;;;;;;;6.87;1.50;;;;;;;6.35;96.04;100097.91;4978847;28;20103;-63
2023/01/08 09:33:00;;;;;;;8.15;1.30;;;;;;;6.34;96.18;100094.41;4981897;28;20362;-63
2023/01/08 09:35:26;;;;;;;7.45;1.50;;;;;;;6.35;95.86;100090.13;4986271;28;20073;-63
2023/01/08 09:37:52;;;;;;;5.15;1.40;;;;;;;6.36;96.29;100084.13;4986021;28;20254;-63
2023/01/08 09:40:24;;;;;;;5.95;1.50;;;;;;;6.37;96.30;100083.28;4985254;28;20009;-63
2023/01/08 09:42:56;;;;;;;6.95;1.42;;;;;;;6.38;96.12;100074.69;4983104;28;20033;-63
2023/01/08 09:45:26;;;;;;;9.57;1.55;;;;;;;6.39;96.60;100079.03;4983136;28;20033;-63
2023/01/08 09:47:53;;;;;;;4.70;1.30;;;;;;;6.42;96.56;100076.53;4981493;28;20034;-63
2023/01/08 09:50:19;;;;;;;5.93;1.40;;;;;;;6.42;96.69;100074.81;4982162;28;20049;-63
2023/01/08 09:52:45;;;;;;;5.90;1.75;;;;;;;6.43;97.18;100076.56;4985065;28;20069;-63
2023/01/08 09:55:15;;;;;;;7.25;1.13;;;;;;;6.47;96.96;100087.00;4985367;28;20176;-63
2023/01/08 09:57:42;;;;;;;7.68;1.67;;;;;;;6.50;97.62;100074.16;4980472;28;20050;-63
2023/01/08 10:00:15;;;;;;;6.03;1.30;;;;;;;6.53;97.14;100082.00;4978371;28;20030;-63
2023/01/08 10:02:41;;;;;;;6.68;1.25;;;;;;;6.56;97.18;100074.31;4977751;28;20054;-63
2023/01/08 10:05:13;;;;;;;6.13;1.40;;;;;;;6.59;97.44;100077.00;4974963;28;20352;-63
2023/01/08 10:07:38;;;;;;;9.35;1.50;;;;;;;6.63;97.44;100060.69;4977944;28;20053;-63
2023/01/08 10:10:04;;;;;;;5.35;1.23;;;;;;;6.67;97.63;100072.03;4979331;28;20031;-63
2023/01/08 10:12:31;;;;;;;5.40;1.42;;;;;;;6.71;97.72;100068.69;4980068;28;20035;-61
2023/01/08 10:15:07;;;;;;;6.32;1.20;;;;;;;6.75;97.68;100076.56;4980824;28;20029;-62
2023/01/08 10:17:44;;;;;;;7.53;1.60;;;;;;;6.78;97.37;100063.69;4984127;28;20022;-62
2023/01/08 10:20:10;;;;;;;5.68;1.50;;;;;;;6.84;97.45;100063.00;4984197;28;20097;-62
2023/01/08 10:22:36;;;;;;;5.60;1.40;;;;;;;6.88;97.20;100058.75;4985119;28;20068;-62
2023/01/08 10:25:08;;;;;;;5.90;1.30;;;;;;;6.92;96.99;100055.41;4984469;28;20022;-61
2023/01/08 10:27:44;;;;;;;6.28;1.30;;;;;;;6.95;96.82;100051.19;4986142;28;20210;-61
2023/01/08 10:30:15;;;;;;;6.68;1.27;;;;;;;7.00;96.78;100045.25;4987018;28;20033;-62
2023/01/08 10:32:55;;;;;;;3.92;1.10;;;;;;;7.04;97.00;100049.66;4972063;28;20022;-62
2023/01/08 10:35:29;;;;;;;6.32;1.77;;;;;;;7.06;96.19;100045.41;4985684;28;20025;-62
2023/01/08 10:37:55;;;;;;;6.05;1.17;;;;;;;7.08;96.17;100039.44;4985283;28;20006;-62
2023/01/08 10:40:34;;;;;;;4.25;1.10;;;;;;;7.13;95.70;100044.72;4983324;28;20258;-61
2023/01/08 10:43:11;;;;;;;4.85;1.33;;;;;;;7.18;95.76;100031.88;4983733;28;20208;-61
2023/01/08 10:45:37;;;;;;;3.22;1.13;;;;;;;7.23;95.27;100025.97;4984434;28;20022;-62
2023/01/08 10:48:06;;;;;;;3.92;1.02;;;;;;;7.29;94.51;100017.47;4982432;28;20030;-62
2023/01/08 10:50:33;;;;;;;5.32;1.15;;;;;;;7.38;95.10;100019.41;4980339;28;20018;-62
2023/01/08 10:53:04;;;;;;;5.68;0.88;;;;;;;7.48;94.18;100009.25;4984921;28;20089;-61
2023/01/08 10:55:38;;;;;;;3.45;1.02;;;;;;;7.58;93.69;100006.88;4983115;28;20046;-62
2023/01/08 10:58:09;;;;;;;3.67;0.80;;;;;;;7.68;93.71;100006.25;4988041;28;20026;-62
2023/01/08 11:00:36;;;;;;;2.65;0.77;;;;;;;7.75;92.97;100010.72;4983289;28;20197;-62
2023/01/08 11:03:06;;;;;;;2.28;0.80;;;;;;;7.82;92.30;100002.22;4986514;28;20342;-61
2023/01/08 11:05:34;;;;;;;3.22;0.70;;;;;;;7.88;92.24;99998.00;4986744;28;20046;-62
2023/01/08 11:08:02;;;;;;;3.42;0.80;;;;;;;7.94;91.09;100005.94;4991338;28;20022;-61
2023/01/08 11:10:29;;;;;;;2.78;0.80;;;;;;;7.98;90.57;99989.56;4987432;28;20274;-61
2023/01/08 11:13:03;;;;;;;2.72;0.70;;;;;;;8.01;90.49;99995.69;4988378;28;20017;-62
2023/01/08 11:15:36;;;;;;;1.45;0.60;;;;;;;8.05;90.20;99987.97;4987689;28;20081;-61
2023/01/08 11:18:22;;;;;;;5.38;1.00;;;;;;;8.09;91.01;99982.00;4987917;28;20023;-62
2023/01/08 11:20:48;;;;;;;2.13;0.68;;;;;;;8.14;89.97;99982.94;4988562;28;20046;-62
2023/01/08 11:23:23;;;;;;;1.08;0.50;;;;;;;8.17;89.74;99970.94;4988328;28;20049;-62
2023/01/08 11:26:03;;;;;;;2.10;0.50;;;;;;;8.23;89.38;99966.72;4988295;28;20030;-62
2023/01/08 11:28:41;;;;;;;2.33;0.50;;;;;;;8.27;89.62;99965.91;4988122;28;20057;-62
2023/01/08 11:31:18;;;;;;;2.08;0.65;;;;;;;8.30;88.89;99961.66;4987529;28;20094;-62
2023/01/08 11:33:46;;;;;;;2.42;0.70;;;;;;;8.29;88.24;99966.81;4988217;28;20083;-62
2023/01/08 11:36:32;;;;;;;1.90;0.60;;;;;;;8.33;88.27;99955.66;4988160;28;20257;-62